createdAt,value
2022-10-08T00:01:06.397Z,11.6
2022-10-08T00:02:14.765Z,11.6
2022-10-08T00:03:23.070Z,11.6
2022-10-08T00:04:31.609Z,16.1
2022-10-08T00:05:39.915Z,16.1
2022-10-08T00:06:48.265Z,16.1
2022-10-08T00:07:56.778Z,15.4
2022-10-08T00:09:05.100Z,15.4
2022-10-08T00:10:13.435Z,15.4
2022-10-08T00:11:21.978Z,15.2
2022-10-08T00:12:30.318Z,15.2
2022-10-08T00:13:38.642Z,15.2
2022-10-08T00:14:47.163Z,15.1
2022-10-08T00:15:55.507Z,15.1
2022-10-08T00:17:03.801Z,15.1
2022-10-08T00:18:12.350Z,16.299999
2022-10-08T00:19:20.687Z,16.299999
2022-10-08T00:20:29.005Z,16.299999
2022-10-08T00:21:37.534Z,16.700001
2022-10-08T00:22:46.140Z,16.700001
2022-10-08T00:23:54.173Z,16.700001
2022-10-08T00:25:02.702Z,17
2022-10-08T00:26:11.021Z,17
2022-10-08T00:27:19.350Z,17
2022-10-08T00:28:27.986Z,18.1
2022-10-08T00:29:36.207Z,18.1
2022-10-08T00:30:44.528Z,18.1
2022-10-08T00:31:53.157Z,17.6
2022-10-08T00:33:01.405Z,17.6
2022-10-08T00:34:09.737Z,17.6
2022-10-08T00:35:18.250Z,17.1
2022-10-08T00:36:26.590Z,17.1
2022-10-08T00:37:34.928Z,17.1
2022-10-08T00:38:43.522Z,16.1
2022-10-08T00:39:51.817Z,16.1
2022-10-08T00:41:00.151Z,16.1
2022-10-08T00:42:08.685Z,16.9
2022-10-08T00:43:17.019Z,16.9
2022-10-08T00:44:25.339Z,16.9
2022-10-08T00:45:33.932Z,18
2022-10-08T00:46:42.221Z,18
2022-10-08T00:47:50.531Z,18
2022-10-08T00:48:59.053Z,17
2022-10-08T00:50:07.365Z,17
2022-10-08T00:51:15.690Z,17
2022-10-08T00:52:24.214Z,18.6
2022-10-08T00:53:32.530Z,18.6
2022-10-08T00:54:40.892Z,18.6
2022-10-08T00:55:49.416Z,19.299999
2022-10-08T00:56:57.750Z,19.299999
2022-10-08T00:58:06.089Z,19.299999
2022-10-08T00:59:14.611Z,18.9
2022-10-08T01:00:22.942Z,18.9
2022-10-08T01:01:31.296Z,18.9
2022-10-08T01:02:39.822Z,22.299999
2022-10-08T01:03:48.139Z,22.299999
2022-10-08T01:04:56.477Z,22.299999
2022-10-08T01:06:05.006Z,19.1
2022-10-08T01:07:13.316Z,19.1
2022-10-08T01:08:21.630Z,19.1
2022-10-08T01:09:30.177Z,21.5
2022-10-08T01:10:38.531Z,21.5
2022-10-08T01:11:46.824Z,21.5
2022-10-08T01:12:55.345Z,22.200001
2022-10-08T01:14:03.664Z,22.200001
2022-10-08T01:15:12.025Z,22.200001
2022-10-08T01:16:20.611Z,23.200001
2022-10-08T01:17:28.886Z,23.200001
2022-10-08T01:18:37.201Z,23.200001
2022-10-08T01:19:45.726Z,19.700001
2022-10-08T01:20:54.054Z,19.700001
2022-10-08T01:22:02.386Z,19.700001
2022-10-08T01:23:10.904Z,24
2022-10-08T01:24:19.232Z,24
2022-10-08T01:25:27.568Z,24
2022-10-08T01:26:36.104Z,21.799999
2022-10-08T01:27:44.403Z,21.799999
2022-10-08T01:28:52.719Z,21.799999
2022-10-08T01:30:01.240Z,23.4
2022-10-08T01:31:09.611Z,23.4
2022-10-08T01:32:17.893Z,23.4
2022-10-08T01:33:26.432Z,23.6
2022-10-08T01:34:34.752Z,23.6
2022-10-08T01:35:43.094Z,23.6
2022-10-08T01:36:51.643Z,25
2022-10-08T01:37:59.949Z,25
2022-10-08T01:39:08.267Z,25
2022-10-08T01:40:16.798Z,29.9
2022-10-08T01:41:25.116Z,29.9
2022-10-08T01:42:33.473Z,29.9
2022-10-08T01:43:41.988Z,28.5
2022-10-08T01:44:50.313Z,28.5
2022-10-08T01:45:58.675Z,28.5
2022-10-08T01:47:07.157Z,27.200001
2022-10-08T01:48:15.471Z,27.200001
2022-10-08T01:49:23.780Z,27.200001
2022-10-08T01:50:32.313Z,28.5
2022-10-08T01:51:40.637Z,28.5
2022-10-08T01:52:49.288Z,28.5
2022-10-08T01:53:57.472Z,28.4
2022-10-08T01:55:05.789Z,28.4
2022-10-08T01:56:14.105Z,28.4
2022-10-08T01:57:22.634Z,31.4
2022-10-08T01:58:31.061Z,31.4
2022-10-08T01:59:39.274Z,31.4
2022-10-08T02:00:47.861Z,30.1
2022-10-08T02:01:56.200Z,30.1
2022-10-08T02:03:04.487Z,30.1
2022-10-08T02:04:13.025Z,30.799999
2022-10-08T02:05:21.359Z,30.799999
2022-10-08T02:06:29.682Z,30.799999
2022-10-08T02:07:38.218Z,30.1
2022-10-08T02:08:46.547Z,30.1
2022-10-08T02:09:54.868Z,30.1
2022-10-08T02:11:03.391Z,33.599998
2022-10-08T02:12:11.726Z,33.599998
2022-10-08T02:13:20.061Z,33.599998
2022-10-08T02:14:28.633Z,33.700001
2022-10-08T02:15:36.953Z,33.700001
2022-10-08T02:16:45.306Z,33.700001
2022-10-08T02:17:53.833Z,33.400002
2022-10-08T02:19:02.142Z,33.400002
2022-10-08T02:20:10.471Z,33.400002
2022-10-08T02:21:19.009Z,34.200001
2022-10-08T02:22:27.329Z,34.200001
2022-10-08T02:23:35.646Z,34.200001
2022-10-08T02:24:44.164Z,31.9
2022-10-08T02:25:52.507Z,31.9
2022-10-08T02:27:00.846Z,31.9
2022-10-08T02:28:09.399Z,32.900002
2022-10-08T02:29:17.682Z,32.900002
2022-10-08T02:30:26.037Z,32.900002
2022-10-08T02:31:34.591Z,33.700001
2022-10-08T02:32:42.866Z,33.700001
2022-10-08T02:33:51.181Z,33.700001
2022-10-08T02:34:59.730Z,32.299999
2022-10-08T02:36:08.052Z,32.299999
2022-10-08T02:37:16.377Z,32.299999
2022-10-08T02:38:24.909Z,31.9
2022-10-08T02:39:33.250Z,31.9
2022-10-08T02:40:41.561Z,31.9
2022-10-08T02:41:50.124Z,32.599998
2022-10-08T02:42:58.438Z,32.599998
2022-10-08T02:44:06.801Z,32.599998
2022-10-08T02:45:15.340Z,32.400002
2022-10-08T02:46:23.728Z,32.400002
2022-10-08T02:47:31.986Z,32.400002
2022-10-08T02:48:40.515Z,31.700001
2022-10-08T02:49:48.854Z,31.700001
2022-10-08T02:50:57.182Z,31.700001
2022-10-08T02:52:05.711Z,33.900002
2022-10-08T02:53:14.028Z,33.900002
2022-10-08T02:54:22.363Z,33.900002
2022-10-08T02:55:30.882Z,31.9
2022-10-08T02:56:39.195Z,31.9
2022-10-08T02:57:47.515Z,31.9
2022-10-08T02:58:56.050Z,30.299999
2022-10-08T03:00:04.374Z,30.299999
2022-10-08T03:01:12.757Z,30.299999
2022-10-08T03:02:21.283Z,29.799999
2022-10-08T03:03:29.550Z,29.799999
2022-10-08T03:04:37.883Z,29.799999
2022-10-08T03:05:46.409Z,30
2022-10-08T03:06:54.736Z,30
2022-10-08T03:08:03.058Z,30
2022-10-08T03:09:11.592Z,32
2022-10-08T03:10:19.923Z,32
2022-10-08T03:11:28.257Z,32
2022-10-08T03:12:36.781Z,32.700001
2022-10-08T03:13:45.105Z,32.700001
2022-10-08T03:14:53.454Z,32.700001
2022-10-08T03:16:02.000Z,30.9
2022-10-08T03:17:10.327Z,30.9
2022-10-08T03:18:18.689Z,30.9
2022-10-08T03:19:27.211Z,30.6
2022-10-08T03:20:35.554Z,30.6
2022-10-08T03:21:43.880Z,30.6
2022-10-08T03:22:52.416Z,32.099998
2022-10-08T03:24:00.732Z,32.099998
2022-10-08T03:25:09.062Z,32.099998
2022-10-08T03:26:17.583Z,31
2022-10-08T03:27:25.905Z,31
2022-10-08T03:28:34.298Z,31
2022-10-08T03:29:42.762Z,30.700001
2022-10-08T03:30:51.135Z,30.700001
2022-10-08T03:31:59.408Z,30.700001
2022-10-08T03:33:07.941Z,31.799999
2022-10-08T03:34:16.305Z,31.799999
2022-10-08T03:35:24.591Z,31.799999
2022-10-08T03:36:33.114Z,30.5
2022-10-08T03:37:41.442Z,30.5
2022-10-08T03:38:49.769Z,30.5
2022-10-08T03:39:58.296Z,30.200001
2022-10-08T03:41:06.619Z,30.200001
2022-10-08T03:42:14.958Z,30.200001
2022-10-08T03:43:23.484Z,30.200001
2022-10-08T03:44:31.815Z,30.200001
2022-10-08T03:45:40.134Z,30.200001
2022-10-08T03:46:48.675Z,25.799999
2022-10-08T03:47:56.984Z,25.799999
2022-10-08T03:49:05.312Z,25.799999
2022-10-08T03:50:13.863Z,25.4
2022-10-08T03:51:22.159Z,25.4
2022-10-08T03:52:30.484Z,25.4
2022-10-08T03:53:39.023Z,23.700001
2022-10-08T03:54:47.339Z,23.700001
2022-10-08T03:55:55.662Z,23.700001
2022-10-08T03:57:04.192Z,24.4
2022-10-08T03:58:12.504Z,24.4
2022-10-08T03:59:20.843Z,24.4
2022-10-08T04:00:29.366Z,24.700001
2022-10-08T04:01:37.753Z,24.700001
2022-10-08T04:02:46.385Z,24.700001
2022-10-08T04:03:54.561Z,25.299999
2022-10-08T04:05:02.877Z,25.299999
2022-10-08T04:06:11.220Z,25.299999
2022-10-08T04:07:19.728Z,24.700001
2022-10-08T04:08:28.062Z,24.700001
2022-10-08T04:09:36.404Z,24.700001
2022-10-08T04:10:44.956Z,22.1
2022-10-08T04:11:53.262Z,22.1
2022-10-08T04:13:01.582Z,22.1
2022-10-08T04:14:10.125Z,21.700001
2022-10-08T04:15:18.443Z,21.700001
2022-10-08T04:16:26.768Z,21.700001
2022-10-08T04:17:35.319Z,22.799999
2022-10-08T04:18:43.668Z,22.799999
2022-10-08T04:19:51.982Z,22.799999
2022-10-08T04:21:00.522Z,27.799999
2022-10-08T04:22:08.874Z,27.799999
2022-10-08T04:23:17.201Z,27.799999
2022-10-08T04:24:25.742Z,24.299999
2022-10-08T04:25:34.089Z,24.299999
2022-10-08T04:26:42.419Z,24.299999
2022-10-08T04:27:50.997Z,24
2022-10-08T04:28:59.285Z,24
2022-10-08T04:30:07.627Z,24
2022-10-08T04:31:16.174Z,21.6
2022-10-08T04:32:24.490Z,21.6
2022-10-08T04:33:32.825Z,21.6
2022-10-08T04:34:41.356Z,20.299999
2022-10-08T04:35:49.675Z,20.299999
2022-10-08T04:36:57.994Z,20.299999
2022-10-08T04:38:06.554Z,21.9
2022-10-08T04:39:14.854Z,21.9
2022-10-08T04:40:23.184Z,21.9
2022-10-08T04:41:31.715Z,23.1
2022-10-08T04:42:40.046Z,23.1
2022-10-08T04:43:48.374Z,23.1
2022-10-08T04:44:56.907Z,23.9
2022-10-08T04:46:05.265Z,23.9
2022-10-08T04:47:13.537Z,23.9
2022-10-08T04:48:22.078Z,22
2022-10-08T04:49:30.396Z,22
2022-10-08T04:50:38.726Z,22
2022-10-08T04:51:47.261Z,23.799999
2022-10-08T04:52:55.598Z,23.799999
2022-10-08T04:54:03.945Z,23.799999
2022-10-08T04:55:12.447Z,20.4
2022-10-08T04:56:20.776Z,20.4
2022-10-08T04:57:29.115Z,20.4
2022-10-08T04:58:37.650Z,24.5
2022-10-08T05:00:06.066Z,24.5
2022-10-08T05:00:54.330Z,24.5
2022-10-08T05:02:02.919Z,21.5
2022-10-08T05:03:11.252Z,21.5
2022-10-08T05:04:19.506Z,21.5
2022-10-08T05:05:28.033Z,21.200001
2022-10-08T05:06:36.350Z,21.200001
2022-10-08T05:07:44.672Z,21.200001
2022-10-08T05:08:53.191Z,29.1
2022-10-08T05:10:01.528Z,29.1
2022-10-08T05:11:09.820Z,29.1
2022-10-08T05:12:18.352Z,23.4
2022-10-08T05:13:26.671Z,23.4
2022-10-08T05:14:34.977Z,23.4
2022-10-08T05:15:43.581Z,23.5
2022-10-08T05:16:51.814Z,23.5
2022-10-08T05:18:00.129Z,23.5
2022-10-08T05:19:08.671Z,21.9
2022-10-08T05:20:16.982Z,21.9
2022-10-08T05:21:25.295Z,21.9
2022-10-08T05:22:33.852Z,21.5
2022-10-08T05:23:42.174Z,21.5
2022-10-08T05:24:50.504Z,21.5
2022-10-08T05:25:59.059Z,19.799999
2022-10-08T05:27:07.363Z,19.799999
2022-10-08T05:28:15.716Z,19.799999
2022-10-08T05:29:24.191Z,21.4
2022-10-08T05:30:32.510Z,21.4
2022-10-08T05:31:40.839Z,21.4
2022-10-08T05:32:49.725Z,22.6
2022-10-08T05:33:57.686Z,22.6
2022-10-08T05:35:06.011Z,22.6
2022-10-08T05:36:14.546Z,20.1
2022-10-08T05:37:22.882Z,20.1
2022-10-08T05:38:34.722Z,20.1
2022-10-08T05:39:39.734Z,22.1
2022-10-08T05:40:48.044Z,22.1
2022-10-08T05:41:56.548Z,22.1
2022-10-08T05:43:04.920Z,23.4
2022-10-08T05:44:13.252Z,23.4
2022-10-08T05:45:21.561Z,23.4
2022-10-08T05:46:30.147Z,20.1
2022-10-08T05:47:38.419Z,20.1
2022-10-08T05:48:46.753Z,20.1
2022-10-08T05:49:55.422Z,21.9
2022-10-08T05:51:03.747Z,21.9
2022-10-08T05:52:12.081Z,21.9
2022-10-08T05:53:20.593Z,20.299999
2022-10-08T05:54:28.910Z,20.299999
2022-10-08T05:55:37.236Z,20.299999
2022-10-08T05:56:45.760Z,24.1
2022-10-08T05:57:54.114Z,24.1
2022-10-08T05:59:02.409Z,24.1
2022-10-08T06:00:10.929Z,21
2022-10-08T06:01:19.254Z,21
2022-10-08T06:02:27.628Z,21
2022-10-08T06:03:36.120Z,19
2022-10-08T06:04:44.485Z,19
2022-10-08T06:05:52.750Z,19
2022-10-08T06:07:01.298Z,20.700001
2022-10-08T06:08:09.633Z,20.700001
2022-10-08T06:09:17.952Z,20.700001
2022-10-08T06:10:26.470Z,19.200001
2022-10-08T06:11:34.822Z,19.200001
2022-10-08T06:12:43.121Z,19.200001
2022-10-08T06:13:51.679Z,18.9
2022-10-08T06:14:59.986Z,18.9
2022-10-08T06:16:08.780Z,18.9
2022-10-08T06:17:17.175Z,21
2022-10-08T06:18:25.505Z,21
2022-10-08T06:19:33.823Z,21
2022-10-08T06:20:42.352Z,18
2022-10-08T06:21:50.677Z,18
2022-10-08T06:22:58.990Z,18
2022-10-08T06:24:07.543Z,19
2022-10-08T06:25:15.875Z,19
2022-10-08T06:26:24.188Z,19
2022-10-08T06:27:32.746Z,17.799999
2022-10-08T06:28:41.108Z,17.799999
2022-10-08T06:29:49.512Z,17.799999
2022-10-08T06:30:58.070Z,19.6
2022-10-08T06:32:06.351Z,19.6
2022-10-08T06:33:14.669Z,19.6
2022-10-08T06:34:23.199Z,19.9
2022-10-08T06:35:31.509Z,19.9
2022-10-08T06:36:39.834Z,19.9
2022-10-08T06:37:48.365Z,19
2022-10-08T06:38:56.687Z,19
2022-10-08T06:40:05.003Z,19
2022-10-08T06:41:13.528Z,19.5
2022-10-08T06:42:21.848Z,19.5
2022-10-08T06:43:30.173Z,19.5
2022-10-08T06:44:38.705Z,16.9
2022-10-08T06:45:47.037Z,16.9
2022-10-08T06:46:55.382Z,16.9
2022-10-08T06:48:03.856Z,18.700001
2022-10-08T06:49:12.239Z,18.700001
2022-10-08T06:50:20.582Z,18.700001
2022-10-08T06:51:29.134Z,18.6
2022-10-08T06:52:37.456Z,18.6
2022-10-08T06:53:45.778Z,18.6
2022-10-08T06:54:54.298Z,17.9
2022-10-08T06:56:02.670Z,17.9
2022-10-08T06:57:11.034Z,17.9
2022-10-08T06:58:19.584Z,17.299999
2022-10-08T06:59:27.902Z,17.299999
2022-10-08T07:00:36.281Z,17.299999
2022-10-08T07:01:44.946Z,19.9
2022-10-08T07:02:53.103Z,19.9
2022-10-08T07:04:01.422Z,19.9
2022-10-08T07:05:09.937Z,17.9
2022-10-08T07:06:18.245Z,17.9
2022-10-08T07:07:26.567Z,17.9
2022-10-08T07:08:35.124Z,16.799999
2022-10-08T07:09:43.429Z,16.799999
2022-10-08T07:10:51.751Z,16.799999
2022-10-08T07:12:00.283Z,17.299999
2022-10-08T07:13:08.609Z,17.299999
2022-10-08T07:14:16.925Z,17.299999
2022-10-08T07:15:25.446Z,19.6
2022-10-08T07:16:33.853Z,19.6
2022-10-08T07:17:42.132Z,19.6
2022-10-08T07:18:50.625Z,17.299999
2022-10-08T07:19:58.961Z,17.299999
2022-10-08T07:21:07.313Z,17.299999
2022-10-08T07:22:15.853Z,17.1
2022-10-08T07:23:24.165Z,17.1
2022-10-08T07:24:32.470Z,17.1
2022-10-08T07:25:40.990Z,15
2022-10-08T07:26:49.336Z,15
2022-10-08T07:27:57.695Z,15
2022-10-08T07:29:06.221Z,15.2
2022-10-08T07:30:14.535Z,15.2
2022-10-08T07:31:22.949Z,15.2
2022-10-08T07:32:31.399Z,17.1
2022-10-08T07:33:39.743Z,17.1
2022-10-08T07:34:48.053Z,17.1
2022-10-08T07:35:56.585Z,14.3
2022-10-08T07:37:04.901Z,14.3
2022-10-08T07:38:13.213Z,14.3
2022-10-08T07:39:21.738Z,13
2022-10-08T07:40:30.044Z,13
2022-10-08T07:41:38.367Z,13
2022-10-08T07:42:47.101Z,11.9
2022-10-08T07:43:55.202Z,11.9
2022-10-08T07:45:03.532Z,11.9
2022-10-08T07:46:12.225Z,13.6
2022-10-08T07:47:20.419Z,13.6
2022-10-08T07:48:33.089Z,13.6
2022-10-08T07:49:37.330Z,14.1
2022-10-08T07:50:45.629Z,14.1
2022-10-08T07:51:53.947Z,14.1
2022-10-08T07:53:02.489Z,12.9
2022-10-08T07:54:10.794Z,12.9
2022-10-08T07:55:19.121Z,12.9
2022-10-08T07:56:27.648Z,12.7
2022-10-08T07:57:35.984Z,12.7
2022-10-08T07:58:44.303Z,12.7
2022-10-08T07:59:52.838Z,12
2022-10-08T08:01:01.210Z,12
2022-10-08T08:02:09.518Z,12
2022-10-08T08:03:18.003Z,11.8
2022-10-08T08:04:26.328Z,11.8
2022-10-08T08:05:34.681Z,11.8
2022-10-08T08:06:43.187Z,11.3
2022-10-08T08:07:53.315Z,11.3
2022-10-08T08:08:59.824Z,11.3
2022-10-08T08:10:08.391Z,12.1
2022-10-08T08:11:16.729Z,12.1
2022-10-08T08:12:25.062Z,12.1
2022-10-08T08:13:36.906Z,11.3
2022-10-08T08:14:41.893Z,11.3
2022-10-08T08:15:50.217Z,11.3
2022-10-08T08:16:58.808Z,9
2022-10-08T08:18:07.049Z,9
2022-10-08T08:19:15.370Z,9
2022-10-08T08:20:23.958Z,11.6
2022-10-08T08:21:32.251Z,11.6
2022-10-08T08:22:40.545Z,11.6
2022-10-08T08:23:49.072Z,11
2022-10-08T08:24:58.631Z,11
2022-10-08T08:26:06.970Z,11
2022-10-08T08:27:15.494Z,11.1
2022-10-08T08:28:23.846Z,11.1
2022-10-08T08:29:32.114Z,11.1
2022-10-08T08:30:40.651Z,11.7
2022-10-08T08:31:49.099Z,11.7
2022-10-08T08:32:57.310Z,11.7
2022-10-08T08:34:05.828Z,16.1
2022-10-08T08:35:14.151Z,16.1
2022-10-08T08:36:22.473Z,16.1
2022-10-08T08:37:31.010Z,15.9
2022-10-08T08:38:39.355Z,15.9
2022-10-08T08:39:47.687Z,15.9
2022-10-08T08:40:56.245Z,15.9
2022-10-08T08:42:04.574Z,15.9
2022-10-08T08:43:12.911Z,15.9
2022-10-08T08:44:21.430Z,12.4
2022-10-08T08:45:46.692Z,12.4
2022-10-08T08:46:38.112Z,12.4
2022-10-08T08:47:46.589Z,14.8
2022-10-08T08:48:54.903Z,14.8
2022-10-08T08:50:03.251Z,14.8
2022-10-08T08:51:11.765Z,11.6
2022-10-08T08:52:20.095Z,11.6
2022-10-08T08:53:28.437Z,11.6
2022-10-08T08:54:36.948Z,11.7
2022-10-08T08:55:45.281Z,11.7
2022-10-08T08:56:53.595Z,11.7
2022-10-08T08:58:02.281Z,20.1
2022-10-08T08:59:10.453Z,20.1
2022-10-08T09:00:18.770Z,20.1
2022-10-08T09:01:27.390Z,15.8
2022-10-08T09:02:35.618Z,15.8
2022-10-08T09:03:43.927Z,15.8
2022-10-08T09:04:52.456Z,8.8
2022-10-08T09:06:00.766Z,8.8
2022-10-08T09:07:09.087Z,8.8
2022-10-08T09:08:17.606Z,7.9
2022-10-08T09:09:25.947Z,7.9
2022-10-08T09:10:34.237Z,7.9
2022-10-08T09:11:42.764Z,9.5
2022-10-08T09:12:51.071Z,9.5
2022-10-08T09:13:59.381Z,9.5
2022-10-08T09:15:07.920Z,9.1
2022-10-08T09:16:16.260Z,9.1
2022-10-08T09:17:24.544Z,9.1
2022-10-08T09:18:33.068Z,7.1
2022-10-08T09:19:41.387Z,7.1
2022-10-08T09:20:49.691Z,7.1
2022-10-08T09:21:58.221Z,7.2
2022-10-08T09:23:06.535Z,7.2
2022-10-08T09:24:14.847Z,7.2
2022-10-08T09:25:23.417Z,6.7
2022-10-08T09:26:31.717Z,6.7
2022-10-08T09:27:40.014Z,6.7
2022-10-08T09:28:48.611Z,7.1
2022-10-08T09:29:56.867Z,7.1
2022-10-08T09:31:08.735Z,7.1
2022-10-08T09:32:13.709Z,6.8
2022-10-08T09:33:22.018Z,6.8
2022-10-08T09:34:30.357Z,6.8
2022-10-08T09:35:38.880Z,10.3
2022-10-08T09:36:47.185Z,10.3
2022-10-08T09:37:55.499Z,10.3
2022-10-08T09:39:04.014Z,8.6
2022-10-08T09:40:12.331Z,8.6
2022-10-08T09:41:20.676Z,8.6
2022-10-08T09:42:29.165Z,6.5
2022-10-08T09:43:37.476Z,6.5
2022-10-08T09:44:45.792Z,6.5
2022-10-08T09:45:54.344Z,6.9
2022-10-08T09:47:02.665Z,6.9
2022-10-08T09:48:10.968Z,6.9
2022-10-08T09:49:19.507Z,7.7
2022-10-08T09:50:27.816Z,7.7
2022-10-08T09:51:36.147Z,7.7
2022-10-08T09:52:44.972Z,10.3
2022-10-08T09:53:52.979Z,10.3
2022-10-08T09:55:01.292Z,10.3
2022-10-08T09:56:09.815Z,8.5
2022-10-08T09:57:18.163Z,8.5
2022-10-08T09:58:26.451Z,8.5
2022-10-08T09:59:34.986Z,7.5
2022-10-08T10:00:43.292Z,7.5
2022-10-08T10:01:51.651Z,7.5
2022-10-08T10:03:00.134Z,6.7
2022-10-08T10:04:08.488Z,6.7
2022-10-08T10:05:16.780Z,6.7
2022-10-08T10:06:25.313Z,7.8
2022-10-08T10:07:33.628Z,7.8
2022-10-08T10:08:41.956Z,7.8
2022-10-08T10:09:50.482Z,5.9
2022-10-08T10:10:58.813Z,5.9
2022-10-08T10:12:07.120Z,5.9
2022-10-08T10:13:15.676Z,5.4
2022-10-08T10:14:23.972Z,5.4
2022-10-08T10:15:32.283Z,5.4
2022-10-08T10:16:40.887Z,6.2
2022-10-08T10:17:49.133Z,6.2
2022-10-08T10:18:57.466Z,6.2
2022-10-08T10:20:05.999Z,6.7
2022-10-08T10:21:14.313Z,6.7
2022-10-08T10:22:22.627Z,6.7
2022-10-08T10:23:31.170Z,8.7
2022-10-08T10:24:39.559Z,8.7
2022-10-08T10:25:47.870Z,8.7
2022-10-08T10:26:56.393Z,5.8
2022-10-08T10:28:04.778Z,5.8
2022-10-08T10:29:13.077Z,5.8
2022-10-08T10:30:21.577Z,6.8
2022-10-08T10:31:29.898Z,6.8
2022-10-08T10:32:38.240Z,6.8
2022-10-08T10:33:46.794Z,5.2
2022-10-08T10:34:55.104Z,5.2
2022-10-08T10:36:03.431Z,5.2
2022-10-08T10:37:11.948Z,5.5
2022-10-08T10:38:20.272Z,5.5
2022-10-08T10:39:28.584Z,5.5
2022-10-08T10:40:37.136Z,5.2
2022-10-08T10:41:45.468Z,5.2
2022-10-08T10:42:53.774Z,5.2
2022-10-08T10:44:02.301Z,4.1
2022-10-08T10:45:10.652Z,4.1
2022-10-08T10:46:19.022Z,4.1
2022-10-08T10:47:31.732Z,6.3
2022-10-08T10:48:36.049Z,6.3
2022-10-08T10:49:44.372Z,6.3
2022-10-08T10:50:52.895Z,5.4
2022-10-08T10:52:01.226Z,5.4
2022-10-08T10:53:09.530Z,5.4
2022-10-08T10:54:18.089Z,5
2022-10-08T10:55:26.401Z,5
2022-10-08T10:56:34.737Z,5
2022-10-08T10:57:43.265Z,5
2022-10-08T10:58:51.599Z,5
2022-10-08T10:59:59.906Z,5
2022-10-08T11:01:08.478Z,4.5
2022-10-08T11:02:16.797Z,4.5
2022-10-08T11:03:25.068Z,4.5
2022-10-08T11:04:33.599Z,6
2022-10-08T11:05:41.921Z,6
2022-10-08T11:06:50.224Z,6
2022-10-08T11:07:58.757Z,4.3
2022-10-08T11:09:07.085Z,4.3
2022-10-08T11:10:15.465Z,4.3
2022-10-08T11:11:23.935Z,4.3
2022-10-08T11:12:32.241Z,4.3
2022-10-08T11:13:40.563Z,4.3
2022-10-08T11:14:49.091Z,3.2
2022-10-08T11:15:57.443Z,3.2
2022-10-08T11:17:05.809Z,3.2
2022-10-08T11:18:14.262Z,5
2022-10-08T11:19:22.602Z,5
2022-10-08T11:20:31.031Z,5
2022-10-08T11:21:39.484Z,4.6
2022-10-08T11:22:48.114Z,4.6
2022-10-08T11:23:56.239Z,4.6
2022-10-08T11:25:04.774Z,4
2022-10-08T11:26:22.189Z,4
2022-10-08T11:27:21.428Z,4
2022-10-08T11:28:30.105Z,4
2022-10-08T11:29:38.356Z,4
2022-10-08T11:30:46.747Z,4
2022-10-08T11:31:55.212Z,5.3
2022-10-08T11:33:03.561Z,5.3
2022-10-08T11:34:11.860Z,5.3
2022-10-08T11:35:20.392Z,4.3
2022-10-08T11:36:32.775Z,4.3
2022-10-08T11:37:37.030Z,4.3
2022-10-08T11:38:45.577Z,3
2022-10-08T11:39:53.904Z,3
2022-10-08T11:41:02.221Z,3
2022-10-08T11:42:10.779Z,4.7
2022-10-08T11:43:19.123Z,4.7
2022-10-08T11:44:27.460Z,4.7
2022-10-08T11:45:36.003Z,3.8
2022-10-08T11:46:44.333Z,3.8
2022-10-08T11:47:52.656Z,3.8
2022-10-08T11:49:01.210Z,3.2
2022-10-08T11:50:09.492Z,3.2
2022-10-08T11:51:17.813Z,3.2
2022-10-08T11:52:26.353Z,3.5
2022-10-08T11:53:34.686Z,3.5
2022-10-08T11:54:43.007Z,3.5
2022-10-08T11:55:51.540Z,3.1
2022-10-08T11:56:59.871Z,3.1
2022-10-08T11:58:09.193Z,3.1
2022-10-08T11:59:16.731Z,2.9
2022-10-08T12:00:25.076Z,2.9
2022-10-08T12:01:33.389Z,2.9
2022-10-08T12:02:42.067Z,2.5
2022-10-08T12:03:50.278Z,2.5
2022-10-08T12:04:58.594Z,2.5
2022-10-08T12:06:07.084Z,3.1
2022-10-08T12:07:15.407Z,3.1
2022-10-08T12:08:23.732Z,3.1
2022-10-08T12:09:32.288Z,3.1
2022-10-08T12:10:40.587Z,3.1
2022-10-08T12:11:48.892Z,3.1
2022-10-08T12:12:57.500Z,3.5
2022-10-08T12:14:05.836Z,3.5
2022-10-08T12:15:14.204Z,3.5
2022-10-08T12:16:22.774Z,2.9
2022-10-08T12:17:31.094Z,2.9
2022-10-08T12:18:39.420Z,2.9
2022-10-08T12:19:47.946Z,2.8
2022-10-08T12:20:56.281Z,2.8
2022-10-08T12:22:04.566Z,2.8
2022-10-08T12:23:13.111Z,2.7
2022-10-08T12:24:21.473Z,2.7
2022-10-08T12:25:29.799Z,2.7
2022-10-08T12:26:38.367Z,2.7
2022-10-08T12:27:46.713Z,2.7
2022-10-08T12:28:55.037Z,2.7
2022-10-08T12:30:03.563Z,3.1
2022-10-08T12:31:11.951Z,3.1
2022-10-08T12:32:20.220Z,3.1
2022-10-08T12:33:28.758Z,3.4
2022-10-08T12:34:37.089Z,3.4
2022-10-08T12:35:45.417Z,3.4
2022-10-08T12:36:54.000Z,4.1
2022-10-08T12:38:02.307Z,4.1
2022-10-08T12:39:10.628Z,4.1
2022-10-08T12:40:19.162Z,2.7
2022-10-08T12:41:27.475Z,2.7
2022-10-08T12:42:35.805Z,2.7
2022-10-08T12:43:44.357Z,83
2022-10-08T12:44:52.678Z,83
2022-10-08T12:46:01.001Z,83
2022-10-08T12:47:09.540Z,2.9
2022-10-08T12:48:17.872Z,2.9
2022-10-08T12:49:26.213Z,2.9
2022-10-08T12:50:34.751Z,4.3
2022-10-08T12:51:43.088Z,4.3
2022-10-08T12:52:51.456Z,4.3
2022-10-08T12:53:59.994Z,5.1
2022-10-08T12:55:08.310Z,5.1
2022-10-08T12:56:16.633Z,5.1
2022-10-08T12:57:25.161Z,4.1
2022-10-08T12:58:33.506Z,4.1
2022-10-08T12:59:41.844Z,4.1
2022-10-08T13:00:50.491Z,4.2
2022-10-08T13:01:58.751Z,4.2
2022-10-08T13:03:07.020Z,4.2
2022-10-08T13:04:15.560Z,3
2022-10-08T13:05:23.880Z,3
2022-10-08T13:06:34.038Z,3
2022-10-08T13:07:40.753Z,4.5
2022-10-08T13:08:49.112Z,4.5
2022-10-08T13:09:57.421Z,4.5
2022-10-08T13:11:05.980Z,3.4
2022-10-08T13:12:14.308Z,3.4
2022-10-08T13:13:22.640Z,3.4
2022-10-08T13:14:31.182Z,4.1
2022-10-08T13:15:39.539Z,4.1
2022-10-08T13:16:47.809Z,4.1
2022-10-08T13:17:56.350Z,4.7
2022-10-08T13:19:04.682Z,4.7
2022-10-08T13:20:12.998Z,4.7
2022-10-08T13:21:21.537Z,6.8
2022-10-08T13:22:29.880Z,6.8
2022-10-08T13:23:38.212Z,6.8
2022-10-08T13:24:46.800Z,4.9
2022-10-08T13:25:55.107Z,4.9
2022-10-08T13:27:03.470Z,4.9
2022-10-08T13:28:12.094Z,4.1
2022-10-08T13:29:20.395Z,4.1
2022-10-08T13:30:28.697Z,4.1
2022-10-08T13:31:37.274Z,6.2
2022-10-08T13:32:45.563Z,6.2
2022-10-08T13:33:53.879Z,6.2
2022-10-08T13:35:02.431Z,6
2022-10-08T13:36:10.747Z,6
2022-10-08T13:37:19.090Z,6
2022-10-08T13:38:27.617Z,4.9
2022-10-08T13:39:35.942Z,4.9
2022-10-08T13:40:44.295Z,4.9
2022-10-08T13:41:52.801Z,4.7
2022-10-08T13:43:01.119Z,4.7
2022-10-08T13:44:09.441Z,4.7
2022-10-08T13:45:17.970Z,6.9
2022-10-08T13:46:26.354Z,6.9
2022-10-08T13:47:34.622Z,6.9
2022-10-08T13:48:43.146Z,6.2
2022-10-08T13:49:51.453Z,6.2
2022-10-08T13:50:59.783Z,6.2
2022-10-08T13:52:08.295Z,6.9
2022-10-08T13:53:16.618Z,6.9
2022-10-08T13:54:24.940Z,6.9
2022-10-08T13:55:33.493Z,5.8
2022-10-08T13:56:41.818Z,5.8
2022-10-08T13:57:50.457Z,5.8
2022-10-08T13:58:58.650Z,2.1
2022-10-08T14:00:06.985Z,2.1
2022-10-08T14:01:15.441Z,2.1
2022-10-08T14:02:23.844Z,1.8
2022-10-08T14:03:32.179Z,1.8
2022-10-08T14:04:40.520Z,1.8
2022-10-08T14:05:49.092Z,2.3
2022-10-08T14:06:57.424Z,2.3
2022-10-08T14:08:05.757Z,2.3
2022-10-08T14:09:14.307Z,1.7
2022-10-08T14:10:22.641Z,1.7
2022-10-08T14:11:30.958Z,1.7
2022-10-08T14:12:39.508Z,2.2
2022-10-08T14:13:47.817Z,2.2
2022-10-08T14:14:56.128Z,2.2
2022-10-08T14:16:04.757Z,2.2
2022-10-08T14:17:13.065Z,2.2
2022-10-08T14:18:21.388Z,2.2
2022-10-08T14:19:29.924Z,1.2
2022-10-08T14:20:38.278Z,1.2
2022-10-08T14:21:46.670Z,1.2
2022-10-08T14:22:55.198Z,2.2
2022-10-08T14:24:03.538Z,2.2
2022-10-08T14:25:12.249Z,2.2
2022-10-08T14:26:20.792Z,1.6
2022-10-08T14:27:29.127Z,1.6
2022-10-08T14:28:37.548Z,1.6
2022-10-08T14:29:46.059Z,1.7
2022-10-08T15:03:04.147Z,0
2022-10-08T15:04:12.547Z,0
2022-10-08T15:05:20.788Z,0
2022-10-08T15:06:29.334Z,6.7
2022-10-08T15:07:37.652Z,6.7
2022-10-08T15:08:45.972Z,6.7
2022-10-08T15:09:54.512Z,4
2022-10-08T15:11:02.822Z,4
2022-10-08T15:12:11.148Z,4
2022-10-08T15:13:19.694Z,3.2
2022-10-08T15:14:28.009Z,3.2
2022-10-08T15:15:36.320Z,3.2
2022-10-08T15:16:44.878Z,3.9
2022-10-08T15:17:53.164Z,3.9
2022-10-08T15:19:01.529Z,3.9
2022-10-08T15:20:10.026Z,3.5
2022-10-08T15:21:18.356Z,3.5
2022-10-08T15:22:26.686Z,3.5
2022-10-08T15:23:35.215Z,4.3
2022-10-08T15:24:43.551Z,4.3
2022-10-08T15:25:51.868Z,4.3
2022-10-08T15:27:00.424Z,5.8
2022-10-08T15:28:08.770Z,5.8
2022-10-08T15:29:17.105Z,5.8
2022-10-08T15:30:25.643Z,4.7
2022-10-08T15:31:34.148Z,4.7
2022-10-08T15:32:42.302Z,4.7